Time;durP1;ratioP1;P1;durP2;ratioP2;P2;SDS_P1;SDS_P2;PMS_P1;PMS_P2;Temp;Humidity;BMP_temperature;BMP_pressure;BME280_temperature;BME280_humidity;BME280_pressure;Samples;Min_cycle;Max_cycle;Signal;HPM_P1;HPM_P2
2022/08/06 00:00:24;;;;;;;4.10;2.00;;;;;;;21.16;47.04;102555.47;5012764;28;20037;-69
2022/08/06 00:02:50;;;;;;;7.63;2.10;;;;;;;21.27;47.02;102559.97;5012474;28;20486;-69
2022/08/06 00:05:15;;;;;;;6.18;2.33;;;;;;;21.16;47.46;102571.03;5013314;28;20030;-69
2022/08/06 00:07:40;;;;;;;4.47;1.92;;;;;;;21.27;47.41;102570.06;5012108;28;20041;-71
2022/08/06 00:10:06;;;;;;;5.88;1.75;;;;;;;21.11;47.50;102562.78;5012496;28;20069;-69
2022/08/06 00:12:34;;;;;;;6.38;1.85;;;;;;;21.13;47.32;102571.56;5012261;28;20100;-69
2022/08/06 00:15:01;;;;;;;3.40;1.48;;;;;;;21.15;47.54;102570.19;5012334;28;20061;-71
2022/08/06 00:17:26;;;;;;;4.63;1.50;;;;;;;21.33;47.29;102574.53;5012454;28;20045;-67
2022/08/06 00:19:52;;;;;;;8.57;1.98;;;;;;;21.39;47.07;102563.41;5012319;28;20493;-70
2022/08/06 00:22:17;;;;;;;5.80;1.40;;;;;;;21.44;46.83;102571.69;5012082;28;20041;-69
2022/08/06 00:24:43;;;;;;;4.40;2.10;;;;;;;21.35;47.04;102577.84;5012178;28;20509;-71
2022/08/06 00:27:08;;;;;;;2.90;1.40;;;;;;;21.14;47.80;102579.50;5012067;28;20087;-70
2022/08/06 00:29:33;;;;;;;4.70;1.60;;;;;;;21.14;47.46;102578.66;5012208;28;20104;-70
2022/08/06 00:31:59;;;;;;;5.72;1.90;;;;;;;21.15;47.69;102589.34;5012603;28;20446;-71
2022/08/06 00:34:24;;;;;;;6.68;1.65;;;;;;;21.19;47.74;102590.47;5012025;28;20422;-70
2022/08/06 00:36:50;;;;;;;3.13;1.60;;;;;;;21.00;48.27;102594.56;5012202;28;20030;-70
2022/08/06 00:39:15;;;;;;;5.45;1.40;;;;;;;20.97;48.32;102589.63;5012236;28;20149;-69
2022/08/06 00:41:40;;;;;;;3.95;1.38;;;;;;;20.93;48.48;102593.94;5011726;28;20021;-70
2022/08/06 00:44:06;;;;;;;3.78;1.55;;;;;;;21.17;47.74;102594.56;5012382;28;20038;-69
2022/08/06 00:46:32;;;;;;;4.50;1.48;;;;;;;20.85;48.46;102591.63;5011738;28;20041;-70
2022/08/06 00:48:57;;;;;;;6.65;1.80;;;;;;;20.85;48.65;102594.38;5011893;28;20034;-69
2022/08/06 00:51:24;;;;;;;5.88;1.60;;;;;;;20.72;48.93;102597.41;5011878;28;20037;-70
2022/08/06 00:53:50;;;;;;;5.18;1.73;;;;;;;20.81;48.74;102595.94;5011853;28;20065;-70
2022/08/06 00:56:16;;;;;;;4.75;1.52;;;;;;;20.84;48.90;102598.16;5011699;28;20025;-70
2022/08/06 00:58:41;;;;;;;3.40;1.52;;;;;;;20.86;48.51;102601.47;5011012;28;20393;-70
2022/08/06 01:01:08;;;;;;;5.35;2.05;;;;;;;20.67;48.87;102617.31;5010654;28;20090;-70
2022/08/06 01:03:52;;;;;;;6.45;1.98;;;;;;;20.77;48.48;102613.91;5000360;28;20113;-69
2022/08/06 01:06:19;;;;;;;1.85;1.38;;;;;;;20.71;48.30;102615.75;5006422;28;20048;-69
2022/08/06 01:08:44;;;;;;;9.45;1.30;;;;;;;20.82;47.83;102616.72;5010626;28;20042;-70
2022/08/06 01:11:10;;;;;;;7.45;1.67;;;;;;;20.56;48.41;102617.41;5011206;28;20034;-68
2022/08/06 01:13:35;;;;;;;3.75;1.13;;;;;;;20.48;48.69;102621.34;5010884;28;20026;-70
2022/08/06 01:16:16;;;;;;;4.30;1.58;;;;;;;20.41;48.99;102628.06;5011154;28;20405;-70
2022/08/06 01:18:44;;;;;;;;;;;;;;;20.38;49.37;102623.94;5008085;28;20056;-71
2022/08/06 01:21:23;;;;;;;3.25;1.23;;;;;;;20.61;48.68;102626.50;5014699;28;19921;-69
2022/08/06 01:24:03;;;;;;;5.28;1.48;;;;;;;20.51;48.82;102628.22;5014708;28;20042;-71
2022/08/06 01:26:49;;;;;;;4.95;1.33;;;;;;;20.47;49.02;102629.78;5014435;28;20068;-68
2022/08/06 01:29:17;;;;;;;5.05;1.15;;;;;;;20.50;48.58;102634.78;5010887;28;20022;-69
2022/08/06 01:32:27;;;;;;;2.60;1.13;;;;;;;20.45;48.68;102635.50;5015379;28;20053;-70
2022/08/06 01:34:55;;;;;;;2.40;1.00;;;;;;;20.47;48.97;102635.25;5004447;28;20034;-69
2022/08/06 01:37:26;;;;;;;2.85;1.35;;;;;;;20.50;48.95;102640.25;5004573;28;20035;-69
2022/08/06 01:39:56;;;;;;;2.47;1.17;;;;;;;20.26;49.69;102645.00;5004383;28;20030;-69
2022/08/06 01:42:25;;;;;;;3.00;1.30;;;;;;;20.47;48.85;102643.44;5005458;28;20038;-69
2022/08/06 01:44:54;;;;;;;3.28;1.40;;;;;;;20.44;48.59;102641.22;5004323;28;20080;-69
2022/08/06 01:47:21;;;;;;;9.13;1.75;;;;;;;20.25;49.16;102643.34;4999060;28;20054;-69
2022/08/06 01:49:50;;;;;;;2.33;1.00;;;;;;;20.19;49.46;102648.94;5003481;28;20038;-69
2022/08/06 01:52:17;;;;;;;3.72;1.10;;;;;;;20.28;49.26;102650.22;5003520;28;20026;-71
2022/08/06 01:54:47;;;;;;;3.50;1.20;;;;;;;20.26;49.29;102646.91;5003725;28;20576;-69
2022/08/06 01:57:17;;;;;;;5.07;1.05;;;;;;;20.16;50.02;102652.97;5003860;28;20562;-70
2022/08/06 01:59:48;;;;;;;4.50;1.35;;;;;;;20.15;49.75;102649.41;4988249;28;20037;-70
2022/08/06 02:02:18;;;;;;;4.40;1.77;;;;;;;20.17;49.76;102658.19;5001527;28;20204;-70
2022/08/06 02:04:47;;;;;;;4.22;1.02;;;;;;;20.08;50.07;102654.22;5003179;28;20123;-69
2022/08/06 02:07:14;;;;;;;4.07;1.10;;;;;;;20.11;49.86;102658.31;5014701;28;20034;-70
2022/08/06 02:09:43;;;;;;;4.85;1.23;;;;;;;20.12;49.53;102657.28;5012996;28;20414;-70
2022/08/06 02:12:13;;;;;;;8.32;1.27;;;;;;;19.89;50.09;102662.84;5014510;28;20049;-69
2022/08/06 02:14:47;;;;;;;3.25;1.42;;;;;;;20.05;49.59;102664.75;5010545;28;20042;-70
2022/08/06 02:17:15;;;;;;;4.70;0.85;;;;;;;20.03;49.70;102661.44;5015019;28;20014;-70
2022/08/06 02:19:48;;;;;;;4.53;1.20;;;;;;;20.21;49.20;102665.91;5013284;28;20046;-69
2022/08/06 02:22:15;;;;;;;2.50;1.10;;;;;;;20.11;49.73;102664.63;5013378;28;20034;-69
2022/08/06 02:24:42;;;;;;;4.72;1.23;;;;;;;19.99;49.74;102666.56;5011863;28;20064;-70
2022/08/06 02:27:10;;;;;;;3.53;1.00;;;;;;;20.08;49.22;102667.84;5013354;28;20413;-67
2022/08/06 02:29:37;;;;;;;4.95;1.25;;;;;;;19.94;49.94;102671.09;5007719;28;20034;-68
2022/08/06 02:32:03;;;;;;;4.45;0.98;;;;;;;19.99;49.75;102673.91;5013481;28;20030;-68
2022/08/06 02:34:28;;;;;;;3.92;1.20;;;;;;;20.01;49.67;102675.34;5012814;28;20462;-69
2022/08/06 02:37:10;;;;;;;1.80;0.73;;;;;;;19.95;50.11;102680.97;5011200;28;20037;-68
2022/08/06 02:39:44;;;;;;;1.15;1.05;;;;;;;19.79;50.62;102681.72;5007931;28;20478;-68
2022/08/06 02:42:48;;;;;;;5.80;1.08;;;;;;;19.65;50.88;102669.41;5012622;28;20113;-70
2022/08/06 02:45:35;;;;;;;2.90;1.10;;;;;;;19.60;51.12;102672.84;4990534;28;20053;-68
2022/08/06 02:48:18;;;;;;;2.95;1.15;;;;;;;19.72;50.79;102672.81;4988833;28;20106;-68
2022/08/06 02:50:47;;;;;;;3.67;1.25;;;;;;;19.67;50.71;102673.56;4988831;28;20495;-68
2022/08/06 02:53:19;;;;;;;1.80;0.82;;;;;;;19.65;50.66;102669.41;4990987;28;20037;-68
2022/08/06 02:55:50;;;;;;;1.35;0.98;;;;;;;19.60;50.76;102663.84;4990642;28;20061;-67
2022/08/06 02:58:39;;;;;;;4.75;1.33;;;;;;;19.81;50.65;102669.47;4988027;28;20034;-70
2022/08/06 03:01:09;;;;;;;2.85;1.15;;;;;;;19.66;50.33;102671.91;4986754;28;20034;-67
2022/08/06 03:03:38;;;;;;;4.18;1.27;;;;;;;19.61;50.46;102669.06;4987704;28;20523;-67
2022/08/06 03:06:05;;;;;;;5.72;1.48;;;;;;;19.64;50.40;102667.75;4990269;28;20030;-68
2022/08/06 03:08:32;;;;;;;3.75;1.30;;;;;;;19.77;50.27;102664.75;4990077;28;20251;-67
2022/08/06 03:10:59;;;;;;;2.45;0.90;;;;;;;19.84;50.00;102660.81;4990824;28;20049;-68
2022/08/06 03:13:25;;;;;;;2.95;1.08;;;;;;;19.75;50.18;102672.38;4990509;28;20046;-68
2022/08/06 03:15:53;;;;;;;2.03;0.88;;;;;;;19.76;50.25;102665.81;4978673;28;20388;-69
2022/08/06 03:18:20;;;;;;;1.77;0.90;;;;;;;19.84;50.19;102665.44;4953001;28;1093140;-68
2022/08/06 03:20:46;;;;;;;6.55;1.27;;;;;;;19.97;49.59;102667.88;4981329;28;20046;-68
2022/08/06 03:23:13;;;;;;;2.97;1.05;;;;;;;19.22;51.81;102675.25;4994116;28;20038;-69
2022/08/06 03:25:39;;;;;;;8.40;1.10;;;;;;;18.96;52.66;102676.56;4993908;28;20038;-67
2022/08/06 03:28:06;;;;;;;4.15;1.13;;;;;;;18.88;52.65;102676.06;4994049;28;20030;-68
2022/08/06 03:30:32;;;;;;;5.97;1.33;;;;;;;18.84;52.47;102675.72;4993880;28;20030;-68
2022/08/06 03:32:59;;;;;;;1.58;0.95;;;;;;;18.81;52.83;102678.91;4994063;28;20042;-69
2022/08/06 03:35:25;;;;;;;5.72;1.10;;;;;;;18.74;52.88;102674.63;4992755;28;20129;-68
2022/08/06 03:37:53;;;;;;;1.73;1.13;;;;;;;18.94;52.82;102677.84;4994513;28;20038;-68
2022/08/06 03:40:20;;;;;;;3.05;1.08;;;;;;;18.99;52.29;102673.34;4993570;28;20065;-67
2022/08/06 03:42:46;;;;;;;1.92;1.15;;;;;;;19.07;51.84;102683.06;4992853;28;20081;-67
2022/08/06 03:45:11;;;;;;;4.55;1.60;;;;;;;19.03;52.17;102677.25;4993570;28;20513;-67
2022/08/06 03:47:41;;;;;;;1.45;0.88;;;;;;;19.08;52.10;102690.19;4993563;28;20375;-67
2022/08/06 03:50:06;;;;;;;3.67;1.00;;;;;;;19.10;51.65;102694.31;4993871;28;20116;-67
2022/08/06 03:52:37;;;;;;;4.65;1.42;;;;;;;19.15;52.09;102696.34;4993451;28;20579;-68
2022/08/06 03:55:05;;;;;;;4.25;1.48;;;;;;;19.22;51.91;102692.44;4993273;28;20189;-67
2022/08/06 03:57:37;;;;;;;1.15;0.98;;;;;;;19.13;52.04;102701.19;4993478;28;20085;-68
2022/08/06 04:00:04;;;;;;;2.83;1.60;;;;;;;18.99;52.57;102699.75;4991889;28;20095;-67
2022/08/06 04:02:33;;;;;;;4.95;0.90;;;;;;;18.94;53.30;102708.66;4990042;28;20034;-67
2022/08/06 04:05:00;;;;;;;3.08;1.10;;;;;;;19.13;52.77;102710.22;4993114;28;20041;-66
2022/08/06 04:07:28;;;;;;;5.38;1.10;;;;;;;19.42;52.38;102704.91;4992663;28;20375;-66
2022/08/06 04:09:54;;;;;;;3.45;1.05;;;;;;;19.44;52.37;102706.31;4987743;28;20030;-68
2022/08/06 04:12:20;;;;;;;3.38;1.15;;;;;;;19.47;52.47;102705.03;4984245;28;20049;-67
2022/08/06 04:14:46;;;;;;;3.47;1.17;;;;;;;19.63;51.89;102716.03;4992465;28;20045;-67
2022/08/06 04:17:12;;;;;;;3.88;1.00;;;;;;;19.54;52.50;102712.00;4993501;28;20030;-68
2022/08/06 04:19:38;;;;;;;6.70;1.17;;;;;;;19.77;51.90;102722.88;4992787;28;20053;-67
2022/08/06 04:22:04;;;;;;;1.45;0.70;;;;;;;19.69;51.84;102709.63;4992875;28;20129;-68
2022/08/06 04:24:30;;;;;;;2.15;1.10;;;;;;;19.77;51.80;102719.31;4992775;28;20057;-68
2022/08/06 04:26:59;;;;;;;4.70;1.20;;;;;;;19.76;52.02;102721.22;4993001;28;20042;-69
2022/08/06 04:29:24;;;;;;;4.20;1.08;;;;;;;19.74;52.07;102723.34;4992790;28;20038;-68
2022/08/06 04:31:52;;;;;;;2.90;1.08;;;;;;;19.78;51.73;102716.34;4993389;28;20101;-69
2022/08/06 04:34:23;;;;;;;3.47;0.88;;;;;;;19.81;51.76;102718.59;4992953;28;20034;-68
2022/08/06 04:36:50;;;;;;;8.20;1.20;;;;;;;19.94;51.37;102729.25;4992703;28;20030;-68
2022/08/06 04:39:18;;;;;;;1.33;0.70;;;;;;;19.97;51.79;102731.47;4992720;28;20049;-68
2022/08/06 04:41:43;;;;;;;4.78;0.80;;;;;;;20.06;51.85;102730.06;4992665;28;20038;-66
2022/08/06 04:44:10;;;;;;;3.25;0.88;;;;;;;20.16;51.80;102718.50;4992867;28;20490;-67
2022/08/06 04:46:36;;;;;;;5.35;1.42;;;;;;;20.29;51.55;102725.59;4992533;28;20050;-68
2022/08/06 04:49:03;;;;;;;8.45;1.73;;;;;;;20.31;51.17;102734.38;4992723;28;20062;-66
2022/08/06 04:51:28;;;;;;;1.92;1.10;;;;;;;20.34;51.17;102737.47;4992219;28;20383;-68
2022/08/06 04:53:53;;;;;;;4.35;1.13;;;;;;;20.42;51.09;102734.31;4992220;28;20038;-66
2022/08/06 04:56:19;;;;;;;2.40;0.98;;;;;;;20.50;50.99;102738.56;4992804;28;20034;-67
2022/08/06 04:58:44;;;;;;;0.63;0.63;;;;;;;20.57;50.80;102737.34;4992555;28;20034;-68
2022/08/06 05:01:10;;;;;;;6.65;1.10;;;;;;;20.71;50.65;102743.31;4992292;28;20097;-67
2022/08/06 05:03:35;;;;;;;3.17;1.00;;;;;;;20.53;52.27;102743.53;4993007;28;20475;-68
2022/08/06 05:06:12;;;;;;;1.58;0.93;;;;;;;20.57;52.72;102758.38;4992901;28;20042;-68
2022/08/06 05:08:41;;;;;;;2.80;0.95;;;;;;;20.62;53.63;102751.09;4992978;28;20042;-67
2022/08/06 05:11:22;;;;;;;2.75;0.90;;;;;;;20.50;53.16;102755.78;4993342;28;20589;-68
2022/08/06 05:13:52;;;;;;;;;;;;;;;20.42;53.26;102752.63;4992999;28;20042;-66
2022/08/06 05:16:19;;;;;;;2.15;1.10;;;;;;;20.65;53.69;102760.69;4992667;28;19922;-67
2022/08/06 05:18:49;;;;;;;3.22;0.98;;;;;;;20.73;52.31;102761.16;4992596;28;20069;-66
2022/08/06 05:21:52;;;;;;;3.97;1.10;;;;;;;20.65;53.45;102760.69;4991357;28;20386;-66
2022/08/06 05:24:19;;;;;;;3.53;1.17;;;;;;;20.68;52.98;102763.75;4992447;28;20049;-68
2022/08/06 05:26:46;;;;;;;5.53;1.33;;;;;;;20.85;53.14;102764.59;4992710;28;20061;-67
2022/08/06 05:29:11;;;;;;;1.85;0.70;;;;;;;20.83;53.09;102766.75;4992212;28;20030;-68
2022/08/06 05:31:39;;;;;;;5.20;0.98;;;;;;;20.86;52.68;102771.75;4991701;28;20049;-68
2022/08/06 05:34:09;;;;;;;3.30;0.93;;;;;;;20.91;52.08;102777.28;4988050;28;20035;-65
2022/08/06 05:36:34;;;;;;;3.35;1.30;;;;;;;21.17;51.82;102773.13;4984408;28;20042;-65
2022/08/06 05:39:01;;;;;;;1.88;0.88;;;;;;;20.96;51.96;102779.28;4984872;28;20038;-66
2022/08/06 05:41:30;;;;;;;3.17;1.40;;;;;;;20.99;52.52;102789.75;4972035;28;20054;-67
2022/08/06 05:43:56;;;;;;;4.45;1.30;;;;;;;20.98;53.34;102783.44;4972294;28;20066;-66
2022/08/06 05:46:23;;;;;;;5.43;0.93;;;;;;;21.23;52.27;102788.53;4972213;28;20535;-66
2022/08/06 05:49:04;;;;;;;6.30;1.50;;;;;;;21.10;53.09;102793.50;4972110;28;20042;-67
2022/08/06 05:51:35;;;;;;;3.22;1.95;;;;;;;21.23;52.80;102794.00;4971809;28;20037;-67
2022/08/06 05:54:13;;;;;;;1.60;1.10;;;;;;;21.28;52.61;102799.56;4972019;28;20061;-68
2022/08/06 05:56:43;;;;;;;10.13;1.33;;;;;;;21.23;53.32;102793.19;4972314;28;20468;-67
2022/08/06 05:59:18;;;;;;;3.57;1.40;;;;;;;21.33;51.57;102796.91;4973339;28;20062;-67
2022/08/06 06:01:45;;;;;;;3.15;1.20;;;;;;;21.24;52.56;102795.66;4972923;28;20046;-67
2022/08/06 06:04:13;;;;;;;3.90;1.17;;;;;;;21.23;52.05;102802.19;4972790;28;20045;-70
2022/08/06 06:06:38;;;;;;;2.90;1.00;;;;;;;21.13;51.71;102806.69;4975518;28;20043;-66
2022/08/06 06:09:05;;;;;;;3.10;0.95;;;;;;;21.07;51.54;102805.75;4976444;28;20053;-67
2022/08/06 06:11:31;;;;;;;2.00;0.88;;;;;;;21.20;51.58;102810.09;4976416;28;20035;-67
2022/08/06 06:13:57;;;;;;;2.88;1.20;;;;;;;21.30;50.98;102815.72;4977112;28;20027;-66
2022/08/06 06:16:34;;;;;;;2.67;1.17;;;;;;;20.97;51.41;102808.31;4976292;28;20057;-68
2022/08/06 06:19:43;;;;;;;2.65;0.90;;;;;;;21.16;50.81;102815.22;4974786;28;20113;-68
2022/08/06 06:22:28;;;;;;;6.05;1.20;;;;;;;21.18;50.58;102810.34;4973368;28;20085;-66
2022/08/06 06:25:02;;;;;;;5.72;0.95;;;;;;;21.30;50.15;102808.34;4973636;28;20081;-67
2022/08/06 06:28:01;;;;;;;1.23;0.68;;;;;;;20.86;50.74;102811.91;4973053;28;20062;-66
2022/08/06 06:30:40;;;;;;;4.20;1.27;;;;;;;21.34;49.73;102814.16;4972943;28;20077;-67
2022/08/06 06:33:37;;;;;;;2.88;0.98;;;;;;;21.57;49.62;102816.69;4972957;28;20046;-67
2022/08/06 06:36:15;;;;;;;3.67;0.98;;;;;;;21.03;50.10;102820.19;4972892;28;20175;-67
2022/08/06 06:39:18;;;;;;;6.05;1.40;;;;;;;21.23;49.84;102813.13;4972591;28;20093;-65
2022/08/06 06:41:51;;;;;;;4.57;0.90;;;;;;;21.65;49.36;102814.38;4972702;28;20046;-67
2022/08/06 06:44:39;;;;;;;2.95;1.15;;;;;;;21.82;49.13;102822.56;4972946;28;20055;-65
2022/08/06 06:47:14;;;;;;;6.60;1.15;;;;;;;21.92;48.84;102822.72;4972861;28;20074;-66
2022/08/06 06:49:44;;;;;;;7.95;1.25;;;;;;;21.77;49.13;102834.28;4972549;28;20106;-65
2022/08/06 06:52:26;;;;;;;5.07;1.10;;;;;;;21.81;49.13;102824.50;4972437;28;20038;-66
2022/08/06 06:55:06;;;;;;;4.22;0.90;;;;;;;21.99;49.17;102830.75;4972427;28;20038;-66
2022/08/06 06:57:37;;;;;;;6.03;1.33;;;;;;;22.00;50.05;102830.50;4975198;28;20047;-66
2022/08/06 07:00:05;;;;;;;4.47;0.98;;;;;;;22.25;49.54;102827.28;4975071;28;20129;-64
2022/08/06 07:02:34;;;;;;;5.20;1.10;;;;;;;22.12;49.46;102831.22;4975066;28;20034;-66
2022/08/06 07:05:03;;;;;;;4.25;1.10;;;;;;;22.35;49.21;102833.72;4975589;28;20049;-66
2022/08/06 07:07:33;;;;;;;4.78;1.20;;;;;;;22.40;47.80;102833.78;4974896;28;20118;-66
2022/08/06 07:10:01;;;;;;;4.72;0.82;;;;;;;22.55;47.58;102828.47;4975090;28;20053;-67
2022/08/06 07:12:30;;;;;;;3.47;0.60;;;;;;;22.51;48.25;102840.19;4973525;28;20038;-66
2022/08/06 07:14:57;;;;;;;6.38;1.15;;;;;;;22.69;47.49;102838.00;4974784;28;20035;-67
2022/08/06 07:17:24;;;;;;;4.05;0.75;;;;;;;22.68;47.24;102838.25;4973877;28;20424;-67
2022/08/06 07:19:56;;;;;;;4.55;1.02;;;;;;;22.58;47.31;102835.41;4974669;28;20066;-67
2022/08/06 07:22:24;;;;;;;7.47;0.88;;;;;;;22.63;47.63;102844.50;4974612;28;20039;-66
2022/08/06 07:24:59;;;;;;;4.85;0.80;;;;;;;22.74;46.67;102839.97;4974595;28;20127;-67
2022/08/06 07:27:33;;;;;;;4.80;1.00;;;;;;;22.89;45.25;102842.03;4974622;28;20446;-67
2022/08/06 07:30:00;;;;;;;6.72;0.70;;;;;;;22.73;44.97;102846.53;4977434;28;20146;-65
2022/08/06 07:32:29;;;;;;;2.33;0.70;;;;;;;22.91;44.22;102848.06;5013356;28;20026;-66
2022/08/06 07:34:55;;;;;;;6.50;0.90;;;;;;;22.86;43.53;102848.84;5003541;28;20028;-67
2022/08/06 07:37:21;;;;;;;3.45;0.50;;;;;;;23.28;43.28;102848.97;5012823;28;20110;-67
2022/08/06 07:39:48;;;;;;;11.18;1.40;;;;;;;22.75;43.45;102846.25;5012951;28;20033;-66
2022/08/06 07:42:15;;;;;;;5.00;0.93;;;;;;;23.15;43.80;102842.03;5007500;28;20037;-66
2022/08/06 07:44:48;;;;;;;4.80;0.95;;;;;;;21.68;48.08;102852.19;5012973;28;20041;-66
2022/08/06 07:47:19;;;;;;;1.67;0.55;;;;;;;22.14;46.81;102844.66;5002951;28;20021;-66
2022/08/06 07:49:49;;;;;;;3.30;1.00;;;;;;;22.84;44.20;102842.00;5012624;28;20057;-66
2022/08/06 07:52:17;;;;;;;4.68;1.27;;;;;;;22.48;43.71;102846.19;5007386;28;20049;-66
2022/08/06 07:54:43;;;;;;;5.45;0.60;;;;;;;23.09;42.92;102843.06;5012548;28;20032;-66
2022/08/06 07:57:10;;;;;;;6.57;1.13;;;;;;;23.09;43.07;102842.22;5012720;28;20430;-65
2022/08/06 07:59:36;;;;;;;2.95;0.70;;;;;;;23.10;42.70;102838.38;5013077;28;20030;-66
2022/08/06 08:02:04;;;;;;;0.90;0.40;;;;;;;23.42;42.00;102842.00;5013511;28;20057;-64
2022/08/06 08:07:15;;;;;;;2.30;0.60;;;;;;;24.05;40.69;102839.16;5011887;28;20049;-66
2022/08/06 08:09:42;;;;;;;1.20;0.60;;;;;;;22.89;42.69;102845.59;4991618;28;20034;-65
2022/08/06 08:12:10;;;;;;;5.22;0.73;;;;;;;23.16;42.63;102845.56;4979667;28;20066;-65
2022/08/06 08:14:37;;;;;;;6.80;1.38;;;;;;;23.55;41.85;102850.63;4985509;28;20121;-65
2022/08/06 08:17:03;;;;;;;4.60;0.85;;;;;;;24.61;40.32;102850.41;4981673;28;20038;-66
2022/08/06 08:19:33;;;;;;;3.45;0.70;;;;;;;24.49;39.31;102853.34;4986438;28;20057;-65
2022/08/06 08:22:00;;;;;;;;;;;;;;;24.66;40.15;102858.66;4995513;28;20049;-66
2022/08/06 08:24:26;;;;;;;3.15;0.90;;;;;;;24.27;40.70;102859.03;5008265;28;19963;-66
2022/08/06 08:26:53;;;;;;;3.45;0.47;;;;;;;24.26;40.84;102851.06;4995964;28;20053;-66
2022/08/06 08:29:18;;;;;;;4.80;0.45;;;;;;;23.62;41.61;102846.81;4992206;28;20049;-66
2022/08/06 08:31:44;;;;;;;6.97;0.73;;;;;;;22.54;44.53;102853.41;4989718;28;20027;-67
2022/08/06 08:34:11;;;;;;;3.00;0.70;;;;;;;22.90;43.72;102858.22;4984169;28;20154;-66
2022/08/06 08:36:36;;;;;;;3.20;0.63;;;;;;;22.60;43.82;102858.69;4979994;28;20042;-66
2022/08/06 08:39:02;;;;;;;3.85;0.55;;;;;;;23.50;41.87;102861.56;4999136;28;20069;-67
2022/08/06 08:41:36;;;;;;;1.42;0.55;;;;;;;23.75;40.80;102862.81;5012268;28;20421;-66
2022/08/06 08:44:06;;;;;;;1.45;0.63;;;;;;;23.91;41.09;102865.41;5012073;28;20038;-67
2022/08/06 08:46:37;;;;;;;3.70;0.80;;;;;;;24.61;39.17;102862.19;5012134;28;20038;-66
2022/08/06 08:49:04;;;;;;;1.85;0.77;;;;;;;24.55;38.68;102867.97;5012224;28;20050;-68
2022/08/06 08:51:33;;;;;;;3.03;0.77;;;;;;;24.59;39.17;102864.41;5012154;28;20041;-66
2022/08/06 08:54:00;;;;;;;6.35;0.80;;;;;;;24.96;38.21;102867.03;5011999;28;20042;-66
2022/08/06 08:56:25;;;;;;;4.88;0.70;;;;;;;25.23;37.73;102865.69;5012118;28;20029;-66
2022/08/06 08:58:52;;;;;;;3.40;0.75;;;;;;;24.49;36.68;102867.09;5012468;28;20363;-67
2022/08/06 09:01:18;;;;;;;4.13;1.27;;;;;;;24.40;36.12;102868.72;5012038;28;20034;-68
2022/08/06 09:03:44;;;;;;;2.97;0.73;;;;;;;24.14;36.63;102867.78;5011846;28;20034;-68
2022/08/06 09:06:10;;;;;;;4.13;0.65;;;;;;;24.70;36.09;102862.53;5010074;28;20045;-67
2022/08/06 09:08:36;;;;;;;6.95;1.10;;;;;;;24.76;36.34;102870.56;5010151;28;20037;-69
2022/08/06 09:11:03;;;;;;;4.03;0.77;;;;;;;24.48;37.25;102876.47;5012088;28;20041;-66
2022/08/06 09:13:29;;;;;;;5.45;0.95;;;;;;;24.95;36.13;102879.13;5011802;28;20038;-67
2022/08/06 09:15:55;;;;;;;3.38;0.68;;;;;;;24.95;34.72;102871.69;5011784;28;20091;-68
2022/08/06 09:18:22;;;;;;;3.38;0.70;;;;;;;25.09;34.82;102875.56;5010954;28;20044;-63
2022/08/06 09:20:48;;;;;;;3.90;1.00;;;;;;;25.05;35.60;102879.13;5008669;28;20049;-63
2022/08/06 09:23:16;;;;;;;8.95;1.45;;;;;;;25.66;34.74;102880.03;4996965;28;20669;-63
2022/08/06 09:25:50;;;;;;;1.52;0.88;;;;;;;25.42;34.44;102882.50;5009838;28;20409;-62
2022/08/06 09:28:36;;;;;;;3.20;1.10;;;;;;;25.38;33.72;102886.88;5008615;28;20450;-63
2022/08/06 09:31:04;;;;;;;3.35;1.05;;;;;;;25.03;34.67;102881.31;5010681;28;20065;-61
2022/08/06 09:33:31;;;;;;;1.83;1.10;;;;;;;25.96;33.51;102886.28;5011513;28;20441;-63
2022/08/06 09:36:06;;;;;;;2.55;0.82;;;;;;;25.12;35.03;102888.78;5012024;28;20500;-63
2022/08/06 09:38:46;;;;;;;1.80;0.68;;;;;;;23.86;38.55;102887.34;5012002;28;20440;-63
2022/08/06 09:41:12;;;;;;;3.22;1.15;;;;;;;24.34;39.29;102891.78;5014624;28;20104;-64
2022/08/06 09:43:38;;;;;;;3.15;1.13;;;;;;;24.39;39.88;102894.56;5015512;28;20045;-63
2022/08/06 09:46:05;;;;;;;2.15;0.98;;;;;;;25.10;38.42;102893.72;5015533;28;20045;-65
2022/08/06 09:48:31;;;;;;;2.03;0.77;;;;;;;25.24;37.72;102896.75;5015545;28;20088;-62
2022/08/06 09:50:57;;;;;;;3.22;1.20;;;;;;;24.80;39.11;102888.16;5015520;28;20042;-63
2022/08/06 09:53:23;;;;;;;2.75;0.93;;;;;;;24.19;39.78;102894.47;5015659;28;20087;-64
2022/08/06 09:55:50;;;;;;;3.28;1.25;;;;;;;24.86;38.81;102883.50;5015035;28;20506;-65
2022/08/06 09:58:34;;;;;;;4.53;1.48;;;;;;;25.44;37.10;102890.47;5010738;28;20034;-64
2022/08/06 10:01:22;;;;;;;2.58;1.17;;;;;;;25.05;36.70;102890.97;5006047;28;20038;-63
2022/08/06 10:03:49;;;;;;;2.92;1.00;;;;;;;26.28;34.89;102888.72;5008936;28;20045;-64
2022/08/06 10:06:20;;;;;;;2.47;1.25;;;;;;;24.86;36.33;102884.34;5009023;28;20029;-62
2022/08/06 10:09:04;;;;;;;1.25;0.90;;;;;;;25.43;35.03;102897.09;4995934;28;20565;-62
2022/08/06 10:11:35;;;;;;;3.95;1.10;;;;;;;26.24;33.91;102890.38;5011255;28;20121;-63
2022/08/06 10:14:00;;;;;;;4.07;0.70;;;;;;;25.73;35.09;102902.63;5006828;28;20029;-63
2022/08/06 10:16:29;;;;;;;2.53;0.85;;;;;;;26.42;33.92;102894.47;5005850;28;20093;-63
2022/08/06 10:18:56;;;;;;;1.67;0.70;;;;;;;26.54;34.11;102895.81;4978523;28;20038;-63
2022/08/06 10:21:24;;;;;;;2.65;1.10;;;;;;;25.49;35.05;102890.50;4995892;28;20084;-64
2022/08/06 10:23:52;;;;;;;1.98;0.80;;;;;;;25.75;34.81;102892.16;5011305;28;20037;-64
2022/08/06 10:26:21;;;;;;;2.28;0.88;;;;;;;26.15;33.45;102889.34;5001552;28;20545;-63
2022/08/06 10:28:50;;;;;;;2.05;1.05;;;;;;;26.29;33.17;102887.63;5007586;28;20073;-63
2022/08/06 10:31:17;;;;;;;2.65;0.98;;;;;;;26.96;31.95;102887.06;5004274;28;20832;-63
2022/08/06 10:33:53;;;;;;;2.25;1.17;;;;;;;26.64;29.81;102886.66;4990333;28;20061;-62
2022/08/06 10:36:25;;;;;;;3.67;1.27;;;;;;;26.75;30.63;102883.59;5004527;28;20038;-62
2022/08/06 10:38:52;;;;;;;1.20;0.70;;;;;;;26.89;29.58;102892.91;5002465;28;20058;-63
2022/08/06 10:41:18;;;;;;;3.15;1.00;;;;;;;27.14;30.13;102883.66;5008679;28;20038;-63
2022/08/06 10:43:44;;;;;;;4.18;1.48;;;;;;;26.47;31.32;102888.94;5007936;28;20539;-63
2022/08/06 10:46:20;;;;;;;2.30;1.27;;;;;;;26.82;30.58;102891.56;5008800;28;20553;-64
2022/08/06 10:48:46;;;;;;;3.33;1.08;;;;;;;27.02;30.57;102879.56;5008632;28;20050;-63
2022/08/06 10:51:13;;;;;;;4.25;0.85;;;;;;;27.39;30.85;102879.88;4996880;28;20121;-63
2022/08/06 10:53:44;;;;;;;6.00;1.33;;;;;;;26.43;32.21;102880.41;5008474;28;20038;-63
2022/08/06 10:56:12;;;;;;;5.32;1.02;;;;;;;26.81;31.87;102887.16;5005076;28;20044;-64
2022/08/06 10:58:39;;;;;;;1.20;1.10;;;;;;;26.39;31.80;102887.59;5008457;28;20041;-62
2022/08/06 11:01:37;;;;;;;3.60;1.20;;;;;;;26.29;32.07;102884.88;4992368;28;20074;-64
2022/08/06 11:04:21;;;;;;;2.72;0.95;;;;;;;24.64;34.40;102888.34;4971861;28;20030;-63
2022/08/06 11:07:08;;;;;;;1.58;0.88;;;;;;;24.83;34.26;102886.78;4972582;28;20074;-64
2022/08/06 11:09:40;;;;;;;2.08;1.23;;;;;;;24.45;34.11;102885.25;4971533;28;20388;-62
2022/08/06 11:12:21;;;;;;;2.35;1.33;;;;;;;25.03;33.04;102886.84;4972205;28;20043;-64
2022/08/06 11:14:47;;;;;;;2.05;1.55;;;;;;;25.35;31.18;102889.34;4974813;28;20479;-63
2022/08/06 11:17:12;;;;;;;4.95;1.17;;;;;;;24.97;32.53;102883.25;4975190;28;20038;-63
2022/08/06 11:19:39;;;;;;;2.13;0.95;;;;;;;25.45;32.07;102883.88;4974590;28;20049;-62
2022/08/06 11:22:05;;;;;;;3.60;1.13;;;;;;;26.26;29.98;102876.34;4974581;28;20094;-61
2022/08/06 11:24:31;;;;;;;10.10;1.10;;;;;;;26.90;29.94;102878.00;4977345;28;20138;-61
2022/08/06 11:26:57;;;;;;;2.50;1.13;;;;;;;27.56;28.40;102867.28;4992008;28;20050;-62
2022/08/06 11:29:23;;;;;;;1.58;0.82;;;;;;;28.12;28.37;102870.34;4990575;28;20054;-62
2022/08/06 11:31:50;;;;;;;2.40;1.23;;;;;;;27.19;30.47;102871.72;4990318;28;20085;-62
2022/08/06 11:34:18;;;;;;;2.38;1.15;;;;;;;26.02;31.67;102885.19;4989438;28;20136;-63
2022/08/06 11:36:45;;;;;;;3.53;1.33;;;;;;;26.17;32.95;102870.59;4988834;28;20117;-62
2022/08/06 11:39:10;;;;;;;1.77;1.20;;;;;;;25.64;32.26;102874.78;4989437;28;20042;-63
2022/08/06 11:41:57;;;;;;;3.80;1.20;;;;;;;27.18;29.94;102872.84;4989038;28;20074;-63